Time;durP1;ratioP1;P1;durP2;ratioP2;P2;SDS_P1;SDS_P2;PMS_P1;PMS_P2;Temp;Humidity;BMP_temperature;BMP_pressure;BME280_temperature;BME280_humidity;BME280_pressure;Samples;Min_cycle;Max_cycle;Signal;HPM_P1;HPM_P2
2020/12/01 00:00:07;;;;;;;47.45;24.05;;;1.40;99.90;;;;;;5031242;28;20471;-70
2020/12/01 00:02:32;;;;;;;40.65;21.88;;;1.30;99.90;;;;;;5032696;28;20030;-70
2020/12/01 00:04:58;;;;;;;43.17;22.38;;;1.30;99.90;;;;;;5032815;28;20506;-70
2020/12/01 00:07:24;;;;;;;41.00;22.95;;;1.30;99.90;;;;;;5033858;28;20514;-69
2020/12/01 00:09:49;;;;;;;43.20;23.63;;;1.30;99.90;;;;;;5033000;28;20029;-69
2020/12/01 00:12:15;;;;;;;43.65;23.70;;;1.40;99.90;;;;;;5032997;28;20079;-69
2020/12/01 00:14:40;;;;;;;45.55;23.67;;;1.30;99.90;;;;;;5029801;28;20120;-69
2020/12/01 00:17:06;;;;;;;44.50;24.10;;;1.40;99.90;;;;;;5031046;28;20057;-69
2020/12/01 00:19:32;;;;;;;43.40;22.77;;;1.40;99.90;;;;;;5030922;28;20104;-69
2020/12/01 00:21:57;;;;;;;45.83;24.50;;;1.30;99.90;;;;;;5029865;28;20041;-68
2020/12/01 00:24:23;;;;;;;45.50;24.25;;;1.50;99.90;;;;;;5030331;28;20029;-68
2020/12/01 00:26:49;;;;;;;44.97;22.83;;;1.60;99.90;;;;;;5030940;28;20057;-71
2020/12/01 00:29:15;;;;;;;45.92;23.20;;;1.50;99.90;;;;;;5029415;28;20322;-69
2020/12/01 00:31:41;;;;;;;43.47;22.67;;;1.40;99.90;;;;;;5031014;28;20467;-69
2020/12/01 00:34:08;;;;;;;50.90;25.55;;;1.50;99.90;;;;;;5030335;28;20032;-69
2020/12/01 00:36:34;;;;;;;60.20;28.00;;;1.60;99.90;;;;;;5030748;28;20440;-71
2020/12/01 00:38:59;;;;;;;54.15;27.10;;;1.60;99.90;;;;;;5030090;28;20037;-70
2020/12/01 00:41:25;;;;;;;51.40;26.17;;;1.50;99.90;;;;;;5031099;28;20025;-69
2020/12/01 00:43:51;;;;;;;60.60;27.75;;;1.50;99.90;;;;;;5030834;28;20021;-69
2020/12/01 00:46:16;;;;;;;53.08;27.25;;;1.60;99.90;;;;;;5030174;28;20088;-69
2020/12/01 00:48:42;;;;;;;48.20;25.92;;;1.50;99.90;;;;;;5031687;28;20034;-70
2020/12/01 00:51:08;;;;;;;46.70;24.33;;;1.40;99.90;;;;;;5032064;28;20029;-69
2020/12/01 00:53:33;;;;;;;42.15;23.73;;;1.50;99.90;;;;;;5034490;28;20033;-69
2020/12/01 00:55:59;;;;;;;47.53;25.02;;;1.50;99.90;;;;;;5034922;28;20083;-69
2020/12/01 00:58:25;;;;;;;47.53;24.80;;;1.60;99.90;;;;;;5036120;28;20033;-68
2020/12/01 01:00:50;;;;;;;48.60;25.70;;;1.50;99.90;;;;;;5043890;28;20017;-69
2020/12/01 01:03:16;;;;;;;45.67;23.27;;;1.60;99.90;;;;;;5038563;28;20559;-71
2020/12/01 01:05:42;;;;;;;41.45;22.95;;;1.50;99.90;;;;;;5037140;28;20053;-68
2020/12/01 01:08:08;;;;;;;47.08;23.88;;;1.50;99.90;;;;;;5037940;28;20029;-69
2020/12/01 01:10:34;;;;;;;48.58;26.13;;;1.50;99.90;;;;;;5037474;28;20025;-71
2020/12/01 01:13:01;;;;;;;50.53;25.73;;;1.60;99.90;;;;;;5036085;28;20025;-70
2020/12/01 01:15:33;;;;;;;46.40;23.88;;;1.60;99.90;;;;;;5034262;28;20080;-70
2020/12/01 01:18:00;;;;;;;43.58;22.95;;;1.50;99.90;;;;;;5034345;28;20018;-70
2020/12/01 01:20:27;;;;;;;48.85;25.33;;;1.60;99.90;;;;;;5058025;23;20041;-68
2020/12/01 01:22:53;;;;;;;45.47;23.67;;;1.60;99.90;;;;;;5045213;28;20417;-67
2020/12/01 01:25:19;;;;;;;48.92;24.65;;;1.70;99.90;;;;;;5054464;28;20028;-67
2020/12/01 01:27:46;;;;;;;52.42;26.83;;;1.70;99.90;;;;;;5054301;28;20033;-67
2020/12/01 01:30:15;;;;;;;55.15;27.35;;;1.80;99.90;;;;;;5053838;28;20036;-67
2020/12/01 01:32:40;;;;;;;56.05;27.25;;;1.80;99.90;;;;;;5053383;28;20021;-67
2020/12/01 01:35:06;;;;;;;51.03;26.83;;;1.80;99.90;;;;;;5043530;28;20537;-67
2020/12/01 01:37:32;;;;;;;50.63;24.92;;;1.80;99.90;;;;;;5033925;28;20018;-67
2020/12/01 01:39:58;;;;;;;49.00;25.13;;;1.80;99.90;;;;;;5033753;28;20387;-67
2020/12/01 01:42:23;;;;;;;52.58;26.35;;;1.80;99.90;;;;;;5033680;28;20106;-67
2020/12/01 01:44:49;;;;;;;51.50;26.42;;;1.70;99.90;;;;;;5033139;28;20026;-67
2020/12/01 01:47:22;;;;;;;49.63;24.73;;;1.80;99.90;;;;;;5033991;28;20091;-66
2020/12/01 01:49:54;;;;;;;53.78;26.85;;;1.70;99.90;;;;;;5043352;28;20510;-67
2020/12/01 01:52:49;;;;;;;47.15;24.23;;;1.90;99.90;;;;;;5043441;28;20030;-67
2020/12/01 01:55:24;;;;;;;48.70;23.98;;;1.80;99.90;;;;;;5040538;28;20065;-67
2020/12/01 01:57:57;;;;;;;46.42;24.92;;;1.90;99.90;;;;;;5037498;28;20017;-67
2020/12/01 02:03:29;;;;;;;51.22;25.55;;;1.90;99.90;;;;;;5038255;28;20028;-67
2020/12/01 02:05:55;;;;;;;45.88;25.08;;;1.80;99.90;;;;;;5036347;28;20075;-68
2020/12/01 02:08:22;;;;;;;51.13;24.85;;;1.80;99.90;;;;;;5034133;28;20025;-67
2020/12/01 02:10:48;;;;;;;50.28;25.02;;;1.80;99.90;;;;;;5035542;28;20036;-67
2020/12/01 02:13:19;;;;;;;45.08;23.30;;;1.80;99.90;;;;;;5032882;28;20105;-67
2020/12/01 02:15:46;;;;;;;47.00;22.60;;;1.70;99.90;;;;;;5033297;28;20039;-67
2020/12/01 02:18:12;;;;;;;45.58;22.50;;;1.70;99.90;;;;;;5033818;28;20051;-67
2020/12/01 02:20:37;;;;;;;41.33;22.10;;;1.80;99.90;;;;;;5033255;28;20480;-67
2020/12/01 02:23:03;;;;;;;39.03;21.40;;;1.80;99.90;;;;;;5032838;28;20052;-68
2020/12/01 02:25:29;;;;;;;41.53;21.65;;;1.80;99.90;;;;;;5033417;28;20654;-67
2020/12/01 02:28:00;;;;;;;40.75;21.70;;;1.80;99.90;;;;;;5032801;28;20029;-67
2020/12/01 02:30:25;;;;;;;38.72;20.98;;;1.80;99.90;;;;;;5031554;28;20030;-67
2020/12/01 02:32:51;;;;;;;38.60;21.90;;;1.90;99.90;;;;;;5032299;28;20040;-67
2020/12/01 02:35:17;;;;;;;39.53;21.25;;;1.90;99.90;;;;;;5032238;28;20029;-67
2020/12/01 02:37:43;;;;;;;42.22;21.13;;;1.80;99.90;;;;;;5032583;28;20105;-68
2020/12/01 02:40:16;;;;;;;36.50;21.00;;;1.90;99.90;;;;;;5032271;28;20040;-67
2020/12/01 02:42:43;;;;;;;37.38;20.08;;;2.00;99.90;;;;;;5031630;28;20486;-68
2020/12/01 02:45:09;;;;;;;37.58;20.48;;;1.90;99.90;;;;;;5032233;28;20033;-67
2020/12/01 02:47:35;;;;;;;40.10;21.55;;;1.90;99.90;;;;;;5032355;28;20025;-68
2020/12/01 02:50:00;;;;;;;42.75;23.10;;;2.00;99.90;;;;;;5031941;28;20032;-68
2020/12/01 02:52:26;;;;;;;39.38;20.83;;;1.90;99.90;;;;;;5032283;28;20029;-68
2020/12/01 02:54:52;;;;;;;41.97;22.30;;;1.90;99.90;;;;;;5030657;28;20056;-67
2020/12/01 02:57:20;;;;;;;44.00;22.63;;;1.90;99.90;;;;;;5031874;28;20017;-67
2020/12/01 02:59:46;;;;;;;41.50;21.45;;;1.90;99.90;;;;;;5032001;28;20113;-67
2020/12/01 03:02:12;;;;;;;43.28;22.80;;;2.00;99.90;;;;;;5031872;28;20104;-67
2020/12/01 03:04:38;;;;;;;43.40;22.75;;;1.90;99.90;;;;;;5031459;28;20059;-67
2020/12/01 03:07:03;;;;;;;41.45;21.77;;;2.00;99.90;;;;;;5031609;28;20479;-67
2020/12/01 03:09:29;;;;;;;40.13;21.92;;;2.00;99.90;;;;;;5031702;28;20033;-67
2020/12/01 03:11:55;;;;;;;41.83;22.73;;;2.00;99.90;;;;;;5031902;28;20087;-67
2020/12/01 03:14:23;;;;;;;45.35;21.85;;;2.10;99.90;;;;;;5030582;28;20032;-67
2020/12/01 03:16:49;;;;;;;44.20;22.48;;;2.10;99.90;;;;;;5031864;28;20103;-67
2020/12/01 03:19:16;;;;;;;42.45;22.92;;;2.10;99.90;;;;;;5030094;28;20021;-67
2020/12/01 03:21:42;;;;;;;38.70;21.58;;;2.00;99.90;;;;;;5030600;28;20029;-68
2020/12/01 03:24:08;;;;;;;41.22;20.58;;;2.00;99.90;;;;;;5030914;28;20100;-67
2020/12/01 03:26:33;;;;;;;40.50;22.15;;;2.00;99.90;;;;;;5031727;28;20026;-69
2020/12/01 03:28:59;;;;;;;44.67;22.92;;;2.10;99.90;;;;;;5030491;28;20538;-68
2020/12/01 03:31:25;;;;;;;45.33;24.00;;;2.00;99.90;;;;;;5031636;28;20021;-68
2020/12/01 03:33:50;;;;;;;47.05;22.73;;;2.10;99.90;;;;;;5030826;28;20568;-68
2020/12/01 03:36:19;;;;;;;47.55;23.88;;;2.00;99.90;;;;;;5030981;28;20041;-67
2020/12/01 03:38:45;;;;;;;52.63;24.67;;;2.10;99.90;;;;;;5031458;28;20025;-68
2020/12/01 03:41:11;;;;;;;42.30;23.35;;;2.10;99.90;;;;;;5031258;28;20051;-68
2020/12/01 03:43:37;;;;;;;43.55;21.98;;;2.10;99.90;;;;;;5030832;28;20480;-68
2020/12/01 03:46:03;;;;;;;46.85;24.48;;;2.10;99.90;;;;;;5032305;28;20072;-68
2020/12/01 03:48:29;;;;;;;46.45;22.05;;;2.10;99.90;;;;;;5031180;28;20143;-67
2020/12/01 03:50:55;;;;;;;43.00;23.27;;;2.10;99.90;;;;;;5029893;28;20029;-67
2020/12/01 03:53:21;;;;;;;41.88;21.55;;;2.00;99.90;;;;;;5030280;28;20038;-67
2020/12/01 03:55:46;;;;;;;43.92;22.83;;;2.10;99.90;;;;;;5012544;28;20030;-68
2020/12/01 03:58:12;;;;;;;43.13;21.90;;;2.20;99.90;;;;;;5011604;28;20105;-68
2020/12/01 04:00:38;;;;;;;47.90;23.65;;;2.10;99.90;;;;;;5011386;28;20156;-68
2020/12/01 04:03:04;;;;;;;46.65;23.65;;;2.10;99.90;;;;;;5011067;28;20036;-68
2020/12/01 04:05:30;;;;;;;50.58;25.27;;;2.10;99.90;;;;;;5011406;28;20030;-68
2020/12/01 04:07:57;;;;;;;53.10;24.55;;;2.10;99.90;;;;;;5011543;28;20033;-68
2020/12/01 04:10:25;;;;;;;56.10;25.17;;;2.10;99.90;;;;;;5011602;28;20018;-67
2020/12/01 04:12:52;;;;;;;53.70;24.70;;;2.00;99.90;;;;;;5011184;28;20026;-67
2020/12/01 04:15:19;;;;;;;47.80;23.13;;;2.00;99.90;;;;;;5011534;28;20030;-67
2020/12/01 04:17:45;;;;;;;49.03;24.95;;;2.10;99.90;;;;;;5010199;28;20029;-67
2020/12/01 04:20:11;;;;;;;51.38;25.05;;;2.10;99.90;;;;;;5011342;28;20034;-67
2020/12/01 04:22:37;;;;;;;55.42;24.45;;;2.10;99.90;;;;;;5011028;28;20387;-68
2020/12/01 04:25:05;;;;;;;54.15;24.90;;;2.00;99.90;;;;;;5023972;28;20032;-68
2020/12/01 04:27:31;;;;;;;53.63;25.40;;;2.10;99.90;;;;;;5033022;28;20029;-67
2020/12/01 04:29:57;;;;;;;44.40;22.73;;;2.00;99.90;;;;;;5034817;28;20022;-67
2020/12/01 04:32:22;;;;;;;48.70;22.75;;;2.00;99.90;;;;;;5034975;28;20024;-68
2020/12/01 04:34:49;;;;;;;45.22;22.58;;;2.10;99.90;;;;;;5034164;28;20033;-67
2020/12/01 04:37:14;;;;;;;43.45;22.15;;;2.10;99.90;;;;;;5034453;28;20048;-67
2020/12/01 04:39:40;;;;;;;41.83;21.17;;;2.00;99.90;;;;;;5034690;28;20022;-67
2020/12/01 04:42:06;;;;;;;43.15;21.75;;;2.00;99.90;;;;;;5034685;28;20140;-67
2020/12/01 04:44:59;;;;;;;52.80;25.02;;;2.00;99.90;;;;;;5032610;28;20121;-68
2020/12/01 04:47:27;;;;;;;;;;;2.00;99.90;;;;;;5035050;28;20091;-67
2020/12/01 04:49:57;;;;;;;48.33;23.33;;;2.00;99.90;;;;;;5034464;28;19913;-67
2020/12/01 04:52:42;;;;;;;48.72;23.77;;;2.00;99.90;;;;;;5034244;28;20025;-67
2020/12/01 04:55:37;;;;;;;46.05;23.30;;;2.00;99.90;;;;;;5033808;28;20022;-67
2020/12/01 04:58:13;;;;;;;43.60;22.55;;;2.00;99.90;;;;;;5034231;28;20030;-67
2020/12/01 05:00:53;;;;;;;42.75;21.60;;;2.00;99.90;;;;;;5034364;28;20494;-67
2020/12/01 05:03:33;;;;;;;45.15;21.48;;;2.10;99.90;;;;;;5033988;28;20021;-67
2020/12/01 05:06:29;;;;;;;47.17;22.13;;;2.00;99.90;;;;;;5034100;28;20040;-67
2020/12/01 05:09:01;;;;;;;48.20;21.88;;;2.00;99.90;;;;;;5034687;28;20021;-68
2020/12/01 05:11:56;;;;;;;47.00;23.00;;;2.00;99.90;;;;;;5034419;28;20038;-67
2020/12/01 05:14:25;;;;;;;50.47;23.67;;;2.10;99.90;;;;;;5033552;28;20083;-67
2020/12/01 05:16:54;;;;;;;48.00;23.45;;;2.20;99.90;;;;;;5033168;28;20464;-68
2020/12/01 05:19:39;;;;;;;46.50;22.65;;;2.20;99.90;;;;;;5034055;28;20087;-67
2020/12/01 05:22:05;;;;;;;49.45;22.25;;;2.20;99.90;;;;;;5033631;28;20033;-67
2020/12/01 05:24:49;;;;;;;46.78;23.05;;;2.20;99.90;;;;;;5024691;28;20112;-68
2020/12/01 05:27:30;;;;;;;47.67;23.35;;;2.30;99.90;;;;;;5032521;28;20048;-68
2020/12/01 05:29:57;;;;;;;47.63;23.80;;;2.40;99.90;;;;;;5033439;28;20060;-68
2020/12/01 05:32:24;;;;;;;48.90;23.88;;;2.50;99.90;;;;;;5033590;28;20026;-68
2020/12/01 05:34:50;;;;;;;45.40;23.38;;;2.50;99.90;;;;;;5033020;28;20021;-67
2020/12/01 05:37:16;;;;;;;41.65;22.88;;;2.50;99.90;;;;;;5032983;28;20029;-68
2020/12/01 05:39:41;;;;;;;47.42;22.52;;;2.50;99.90;;;;;;5034327;28;20032;-68
2020/12/01 05:42:18;;;;;;;42.83;23.33;;;2.60;99.90;;;;;;5034896;28;20053;-68
2020/12/01 05:44:54;;;;;;;38.03;20.90;;;2.60;99.90;;;;;;5033266;28;20034;-68
2020/12/01 05:47:26;;;;;;;44.70;22.40;;;2.60;99.90;;;;;;5032065;28;20029;-67
2020/12/01 05:50:06;;;;;;;;;;;2.70;99.90;;;;;;5033937;28;20100;-67
2020/12/01 05:52:48;;;;;;;46.55;24.25;;;2.60;99.90;;;;;;5032728;28;20407;-67
2020/12/01 05:55:20;;;;;;;49.00;24.02;;;2.50;99.90;;;;;;5032823;28;20052;-68
2020/12/01 05:58:04;;;;;;;;;;;2.50;99.90;;;;;;5033704;28;20070;-67
2020/12/01 06:00:33;;;;;;;50.40;24.38;;;2.60;99.90;;;;;;5032780;28;19912;-68
2020/12/01 06:03:35;;;;;;;45.55;22.58;;;2.70;99.90;;;;;;5032343;28;20545;-67
2020/12/01 06:06:01;;;;;;;47.58;23.92;;;2.60;99.90;;;;;;5031925;28;20450;-68
2020/12/01 06:08:46;;;;;;;50.67;25.17;;;2.50;99.90;;;;;;5032791;28;20040;-68
2020/12/01 06:11:11;;;;;;;40.80;21.15;;;2.60;99.90;;;;;;5032628;28;20022;-68
2020/12/01 06:13:48;;;;;;;44.63;22.77;;;2.60;99.90;;;;;;5031738;28;20546;-70
2020/12/01 06:16:31;;;;;;;48.28;24.20;;;2.60;99.90;;;;;;5032034;28;20056;-70
2020/12/01 06:19:03;;;;;;;43.13;21.52;;;2.70;99.90;;;;;;5032296;28;20021;-70
2020/12/01 06:21:35;;;;;;;45.97;22.60;;;2.90;99.90;;;;;;5031969;28;20495;-67
2020/12/01 06:24:21;;;;;;;39.55;20.88;;;2.90;99.90;;;;;;5031611;28;20109;-67
2020/12/01 06:26:46;;;;;;;37.47;20.90;;;3.10;99.90;;;;;;5010356;28;20040;-69
2020/12/01 06:29:32;;;;;;;35.42;19.27;;;3.00;99.90;;;;;;5032372;28;20025;-68
2020/12/01 06:32:11;;;;;;;35.55;19.95;;;3.00;99.90;;;;;;5032546;28;20049;-68
2020/12/01 06:35:03;;;;;;;43.90;20.25;;;2.90;99.90;;;;;;5030091;28;20032;-69
2020/12/01 06:37:59;;;;;;;40.17;21.00;;;2.80;99.90;;;;;;5030243;28;20021;-69
2020/12/01 06:40:38;;;;;;;37.47;19.80;;;2.80;99.90;;;;;;5032685;28;20360;-69
2020/12/01 06:43:09;;;;;;;38.15;20.85;;;2.70;99.90;;;;;;5031805;28;20022;-69
2020/12/01 06:45:43;;;;;;;36.70;19.98;;;2.70;99.90;;;;;;5030888;28;20029;-68
2020/12/01 06:48:12;;;;;;;38.88;19.75;;;2.80;99.90;;;;;;5019267;28;20092;-71
2020/12/01 06:50:42;;;;;;;37.72;20.15;;;2.80;99.90;;;;;;5011545;28;20026;-69
2020/12/01 06:53:08;;;;;;;37.00;20.52;;;2.80;99.90;;;;;;5012167;28;20040;-69
2020/12/01 06:55:36;;;;;;;36.35;18.20;;;2.80;99.90;;;;;;5024361;28;20029;-69
2020/12/01 06:58:20;;;;;;;37.83;19.75;;;2.80;99.90;;;;;;5031976;28;20033;-69
2020/12/01 07:00:46;;;;;;;34.10;18.60;;;2.70;99.90;;;;;;5032091;28;20029;-68
2020/12/01 07:03:22;;;;;;;34.08;18.70;;;2.70;99.90;;;;;;5031226;28;20562;-69
2020/12/01 07:05:47;;;;;;;32.67;17.73;;;2.70;99.90;;;;;;5032062;28;20029;-71
2020/12/01 07:08:25;;;;;;;32.17;17.95;;;2.70;99.90;;;;;;5032672;28;20118;-73
2020/12/01 07:11:11;;;;;;;33.17;17.83;;;2.80;99.90;;;;;;5031819;28;20143;-72
2020/12/01 07:14:03;;;;;;;30.13;17.35;;;2.70;99.90;;;;;;5031300;28;20051;-70
2020/12/01 07:16:47;;;;;;;28.25;16.77;;;2.70;99.90;;;;;;5031278;28;20144;-71
2020/12/01 07:19:37;;;;;;;28.20;15.98;;;2.60;99.90;;;;;;5032351;28;20052;-71
2020/12/01 07:22:23;;;;;;;31.42;17.13;;;2.40;99.90;;;;;;5032223;28;20034;-71
2020/12/01 07:25:17;;;;;;;28.05;15.95;;;2.40;99.90;;;;;;5032173;28;20036;-71
2020/12/01 07:28:13;;;;;;;29.80;17.23;;;2.40;99.90;;;;;;5032118;28;20100;-73
2020/12/01 07:30:52;;;;;;;26.63;15.43;;;2.40;99.90;;;;;;5030927;28;20037;-68
2020/12/01 07:33:29;;;;;;;26.75;14.98;;;2.20;99.90;;;;;;5029430;28;20514;-72
2020/12/01 07:36:36;;;;;;;29.08;16.80;;;2.40;99.90;;;;;;5031405;28;20052;-70
2020/12/01 07:39:10;;;;;;;30.55;16.38;;;2.40;99.90;;;;;;5031265;28;20507;-70
2020/12/01 07:41:46;;;;;;;32.17;17.02;;;2.30;99.90;;;;;;5029174;28;20496;-67
2020/12/01 07:44:15;;;;;;;28.30;17.00;;;2.30;99.90;;;;;;5029250;28;20538;-70
2020/12/01 07:49:25;;;;;;;29.13;15.73;;;2.40;99.90;;;;;;5031550;28;20048;-70
2020/12/01 07:52:04;;;;;;;27.35;15.23;;;2.30;99.90;;;;;;5031395;28;20112;-70
2020/12/01 07:54:30;;;;;;;25.70;14.48;;;2.30;99.90;;;;;;5030633;28;20383;-69
2020/12/01 07:56:56;;;;;;;29.20;15.77;;;2.40;99.90;;;;;;5030412;28;20026;-69
2020/12/01 07:59:22;;;;;;;23.58;14.77;;;2.40;99.90;;;;;;5031647;28;20026;-69
2020/12/01 08:01:47;;;;;;;25.40;14.50;;;2.40;99.90;;;;;;5033713;28;20395;-69
2020/12/01 08:04:19;;;;;;;23.63;14.10;;;2.50;99.90;;;;;;5034689;28;20252;-68
2020/12/01 08:06:56;;;;;;;23.88;14.60;;;2.60;99.90;;;;;;5015706;28;20072;-69
2020/12/01 08:09:24;;;;;;;24.65;14.60;;;2.50;99.90;;;;;;5015601;28;20026;-68
2020/12/01 08:11:54;;;;;;;23.08;13.43;;;2.60;99.90;;;;;;5015426;28;20029;-68
2020/12/01 08:14:20;;;;;;;22.80;13.65;;;2.60;99.90;;;;;;5014732;28;20029;-68
2020/12/01 08:17:01;;;;;;;23.95;14.80;;;2.70;99.90;;;;;;5015638;28;20029;-69
2020/12/01 08:19:29;;;;;;;26.75;14.63;;;2.80;99.90;;;;;;5015802;28;20033;-69
2020/12/01 08:21:55;;;;;;;20.83;12.88;;;2.90;99.90;;;;;;5020577;28;20467;-69
2020/12/01 08:24:23;;;;;;;22.02;13.55;;;2.90;99.90;;;;;;5021935;28;20022;-70
2020/12/01 08:27:04;;;;;;;24.05;13.70;;;2.80;99.90;;;;;;5035399;28;20014;-71
2020/12/01 08:29:35;;;;;;;22.77;13.10;;;2.90;99.90;;;;;;5035047;28;20049;-73
2020/12/01 08:32:18;;;;;;;26.30;14.52;;;2.90;99.90;;;;;;5035564;28;20021;-71
2020/12/01 08:34:51;;;;;;;21.95;13.85;;;3.10;99.90;;;;;;5034289;28;20061;-72
2020/12/01 08:37:44;;;;;;;23.70;13.50;;;3.10;99.90;;;;;;5035014;28;20014;-72
2020/12/01 08:40:31;;;;;;;24.73;14.63;;;3.10;99.90;;;;;;5035086;28;20079;-71
2020/12/01 08:43:15;;;;;;;23.63;13.98;;;3.10;99.90;;;;;;5034803;28;20029;-71
2020/12/01 08:46:06;;;;;;;29.58;17.33;;;3.10;99.90;;;;;;5034883;28;20022;-71
2020/12/01 08:48:41;;;;;;;24.02;14.63;;;3.20;99.90;;;;;;5033722;28;20479;-70
2020/12/01 08:51:21;;;;;;;22.77;14.88;;;3.10;99.90;;;;;;5050215;22;20423;-70
2020/12/01 08:54:16;;;;;;;25.60;14.48;;;3.10;99.90;;;;;;5041825;28;20029;-70
2020/12/01 08:56:48;;;;;;;20.05;12.77;;;3.30;99.90;;;;;;5033439;28;20045;-69
2020/12/01 08:59:48;;;;;;;21.80;12.70;;;3.30;99.90;;;;;;5049654;28;20018;-70
2020/12/01 09:02:16;;;;;;;22.10;13.38;;;3.30;99.90;;;;;;5035142;28;20060;-72
2020/12/01 09:04:42;;;;;;;26.90;15.73;;;3.40;99.90;;;;;;5035081;28;20030;-71
2020/12/01 09:07:17;;;;;;;23.88;14.10;;;3.40;99.90;;;;;;5034391;28;20056;-71
2020/12/01 09:10:04;;;;;;;20.80;14.48;;;3.30;99.90;;;;;;5037457;28;20021;-71
2020/12/01 09:22:47;;;;;;;28.88;16.02;;;3.20;99.90;;;;;;5024203;28;20030;-71
2020/12/01 09:25:18;;;;;;;23.98;15.63;;;3.30;99.90;;;;;;5028715;28;20422;-70
2020/12/01 09:27:46;;;;;;;23.05;15.15;;;3.30;99.90;;;;;;5035193;28;20476;-71
2020/12/01 09:30:27;;;;;;;25.00;15.25;;;3.30;99.90;;;;;;5014941;28;20044;-71
2020/12/01 09:32:54;;;;;;;21.13;13.63;;;3.30;99.90;;;;;;5012009;28;20037;-72
2020/12/01 09:35:19;;;;;;;26.55;15.55;;;3.30;99.90;;;;;;5014109;28;20030;-76
2020/12/01 09:37:45;;;;;;;21.58;14.27;;;3.30;99.90;;;;;;5014254;28;20029;-74
2020/12/01 09:40:11;;;;;;;22.73;14.35;;;3.30;99.90;;;;;;5014301;28;20026;-75
2020/12/01 09:42:37;;;;;;;21.83;13.45;;;3.30;99.90;;;;;;5014179;28;20033;-73
2020/12/01 09:45:16;;;;;;;24.98;14.55;;;3.30;99.90;;;;;;5029117;28;20383;-74
2020/12/01 09:50:31;;;;;;;22.70;14.07;;;3.50;99.90;;;;;;5012461;28;20041;-75
2020/12/01 09:53:08;;;;;;;19.90;12.68;;;3.40;99.90;;;;;;5032570;28;20032;-73
2020/12/01 09:58:28;;;;;;;19.48;12.35;;;3.50;99.90;;;;;;5033212;28;20018;-74
2020/12/01 10:35:23;;;;;;;9.73;6.60;;;3.70;99.90;;;;;;5032947;28;20108;-72
2020/12/01 10:37:55;;;;;;;14.82;8.15;;;3.70;99.90;;;;;;5032622;28;20030;-73
2020/12/01 10:40:22;;;;;;;11.20;7.33;;;3.70;99.90;;;;;;5033240;28;20028;-74
2020/12/01 10:42:49;;;;;;;10.85;7.07;;;3.60;99.90;;;;;;5031343;28;20813;-73
2020/12/01 10:45:16;;;;;;;10.50;6.72;;;3.70;99.90;;;;;;5032233;28;20419;-73
2020/12/01 10:47:42;;;;;;;13.52;7.63;;;3.60;99.90;;;;;;5031353;28;20691;-73
2020/12/01 10:50:08;;;;;;;13.23;8.50;;;3.70;99.90;;;;;;5032295;28;20467;-73
2020/12/01 10:52:34;;;;;;;9.90;6.97;;;3.70;99.90;;;;;;5032048;28;20047;-73
2020/12/01 10:55:00;;;;;;;8.95;7.60;;;3.70;99.90;;;;;;5031477;28;20026;-72
2020/12/01 10:57:25;;;;;;;19.13;9.80;;;3.70;99.90;;;;;;5032714;28;20475;-73
2020/12/01 10:59:51;;;;;;;13.25;9.40;;;3.70;99.90;;;;;;5032283;28;20391;-72
2020/12/01 11:02:17;;;;;;;12.63;7.65;;;3.80;99.90;;;;;;5031415;28;20499;-73
2020/12/01 11:04:42;;;;;;;11.35;8.27;;;3.80;99.90;;;;;;5032132;28;20019;-71
2020/12/01 11:07:08;;;;;;;14.68;8.45;;;3.80;99.90;;;;;;5032307;28;20467;-72
2020/12/01 11:09:34;;;;;;;10.38;7.70;;;3.80;99.90;;;;;;5032488;28;20517;-73
2020/12/01 11:11:59;;;;;;;15.60;10.30;;;3.80;99.90;;;;;;5032558;28;20116;-71
2020/12/01 11:14:26;;;;;;;14.77;8.48;;;3.80;99.90;;;;;;5031709;28;20398;-73
2020/12/01 11:16:51;;;;;;;11.55;7.70;;;3.70;99.90;;;;;;5033381;28;20032;-71
2020/12/01 11:19:17;;;;;;;10.43;8.40;;;3.80;99.90;;;;;;5021745;28;20108;-72
2020/12/01 11:21:43;;;;;;;12.75;7.13;;;3.80;99.90;;;;;;5019796;28;20053;-71
2020/12/01 11:24:09;;;;;;;8.85;6.60;;;4.00;99.90;;;;;;5021502;28;20021;-70
2020/12/01 11:26:35;;;;;;;10.77;5.70;;;4.00;99.90;;;;;;5028561;28;20041;-69
2020/12/01 11:29:01;;;;;;;9.23;5.60;;;4.10;99.90;;;;;;5031148;28;20026;-70
2020/12/01 11:31:27;;;;;;;9.30;6.63;;;4.50;99.90;;;;;;5031284;28;20033;-72
2020/12/01 11:34:00;;;;;;;8.27;5.70;;;4.30;99.90;;;;;;5030209;28;20096;-72
2020/12/01 11:36:26;;;;;;;15.68;6.13;;;4.20;99.90;;;;;;5030700;28;20373;-73
2020/12/01 11:38:52;;;;;;;9.88;7.00;;;4.10;99.90;;;;;;5028999;28;20033;-72
2020/12/01 11:41:18;;;;;;;9.05;7.43;;;4.10;99.90;;;;;;5029907;28;20026;-72
2020/12/01 11:43:43;;;;;;;9.73;7.15;;;3.90;99.90;;;;;;5030209;28;20032;-72
2020/12/01 11:46:10;;;;;;;7.20;5.72;;;4.00;99.90;;;;;;5031307;28;20056;-70
2020/12/01 11:48:36;;;;;;;14.75;7.90;;;4.00;99.90;;;;;;5031099;28;20037;-72
2020/12/01 11:51:02;;;;;;;10.18;7.68;;;4.00;99.90;;;;;;5030382;28;20037;-73
2020/12/01 11:53:28;;;;;;;10.75;7.18;;;4.00;99.90;;;;;;5030090;28;20032;-70
2020/12/01 11:55:53;;;;;;;9.32;6.53;;;4.10;99.90;;;;;;5031095;28;20022;-71
2020/12/01 11:58:19;;;;;;;6.35;4.70;;;4.10;99.90;;;;;;5031366;28;20029;-73
2020/12/01 12:00:45;;;;;;;5.72;4.60;;;4.20;99.90;;;;;;5031133;28;20110;-72
2020/12/01 12:03:10;;;;;;;6.13;5.10;;;4.30;99.90;;;;;;5030340;28;20112;-71
2020/12/01 12:05:36;;;;;;;6.57;5.15;;;4.40;99.90;;;;;;5031138;28;20025;-72
2020/12/01 12:08:02;;;;;;;8.38;4.65;;;4.50;99.90;;;;;;5030790;28;20519;-72
2020/12/01 12:10:27;;;;;;;8.45;4.88;;;4.50;99.90;;;;;;5030738;28;20636;-72
2020/12/01 12:12:53;;;;;;;6.95;4.70;;;4.40;99.90;;;;;;5028096;28;20026;-72
2020/12/01 12:15:18;;;;;;;7.15;5.20;;;4.40;99.90;;;;;;5010762;28;20026;-72
2020/12/01 12:17:44;;;;;;;9.32;5.55;;;4.50;99.90;;;;;;5010151;28;20387;-71
2020/12/01 12:20:10;;;;;;;16.30;5.50;;;4.40;99.90;;;;;;5011170;28;20026;-71
2020/12/01 12:22:35;;;;;;;6.93;4.90;;;4.40;99.90;;;;;;5010935;28;20022;-73
2020/12/01 12:25:01;;;;;;;5.88;4.22;;;4.40;99.90;;;;;;5021390;28;20049;-72
2020/12/01 12:27:28;;;;;;;6.85;4.70;;;4.30;99.90;;;;;;5030964;28;20029;-72
2020/12/01 12:29:54;;;;;;;4.90;3.85;;;4.40;99.90;;;;;;5030980;28;20559;-77
2020/12/01 12:32:20;;;;;;;5.63;4.72;;;4.40;99.90;;;;;;5031251;28;20129;-71
2020/12/01 12:34:46;;;;;;;5.97;4.72;;;4.40;99.90;;;;;;5030389;28;20045;-72
2020/12/01 12:37:11;;;;;;;5.63;4.10;;;4.50;99.90;;;;;;5030548;28;20017;-72
2020/12/01 12:39:37;;;;;;;8.93;6.10;;;4.40;99.90;;;;;;5030968;28;20104;-72
2020/12/01 12:42:03;;;;;;;7.95;5.18;;;4.50;99.90;;;;;;5030767;28;20021;-72
2020/12/01 12:44:29;;;;;;;6.70;4.75;;;4.40;99.90;;;;;;5029922;28;20048;-72
2020/12/01 12:46:54;;;;;;;6.47;4.78;;;4.40;99.90;;;;;;5030947;28;20022;-70
2020/12/01 12:49:20;;;;;;;5.05;4.13;;;4.40;99.90;;;;;;5033762;28;20029;-71
2020/12/01 12:51:46;;;;;;;5.00;4.60;;;4.50;99.90;;;;;;5034213;28;20044;-72
2020/12/01 12:54:12;;;;;;;6.97;4.28;;;4.50;99.90;;;;;;5033860;28;20049;-70
2020/12/01 12:56:38;;;;;;;4.75;3.90;;;4.50;99.90;;;;;;5034296;28;20029;-71
2020/12/01 12:59:04;;;;;;;4.43;4.03;;;4.50;99.90;;;;;;5033508;28;20415;-72
2020/12/01 13:01:29;;;;;;;5.95;4.82;;;4.60;99.90;;;;;;5033629;28;20065;-71
2020/12/01 13:03:55;;;;;;;4.40;3.60;;;4.70;99.90;;;;;;5033403;28;20108;-71
2020/12/01 13:06:21;;;;;;;5.97;4.00;;;4.70;99.90;;;;;;5033571;28;20038;-71
2020/12/01 13:08:47;;;;;;;7.55;5.35;;;4.70;99.90;;;;;;5033439;28;20446;-71
2020/12/01 13:11:13;;;;;;;10.68;6.43;;;4.80;99.90;;;;;;5023443;28;20564;-70
2020/12/01 13:13:39;;;;;;;7.90;4.82;;;4.80;99.90;;;;;;5030996;28;20036;-70
2020/12/01 13:16:05;;;;;;;10.70;6.05;;;4.90;99.90;;;;;;5034729;28;20037;-71
2020/12/01 13:18:30;;;;;;;5.78;4.45;;;5.10;99.90;;;;;;5033629;28;20072;-69
2020/12/01 13:20:56;;;;;;;6.95;4.20;;;5.10;99.90;;;;;;5032652;28;20018;-70
2020/12/01 13:23:22;;;;;;;7.60;5.30;;;5.10;99.90;;;;;;5032666;28;20648;-69
2020/12/01 13:25:48;;;;;;;10.80;6.43;;;5.10;99.90;;;;;;5033324;28;20090;-68
2020/12/01 13:28:13;;;;;;;11.10;6.97;;;5.10;99.90;;;;;;5032930;28;20479;-70
2020/12/01 13:30:39;;;;;;;5.70;4.68;;;5.20;99.90;;;;;;5034387;28;20021;-70
2020/12/01 13:33:05;;;;;;;6.85;6.05;;;5.40;99.90;;;;;;5033656;28;20090;-70
2020/12/01 13:35:31;;;;;;;7.85;4.63;;;5.50;99.90;;;;;;5039749;28;20071;-71
2020/12/01 13:37:57;;;;;;;4.68;4.05;;;5.60;99.90;;;;;;5038368;28;20032;-70
2020/12/01 13:40:23;;;;;;;4.10;3.70;;;5.70;99.90;;;;;;5035071;28;20025;-70
2020/12/01 13:42:50;;;;;;;5.00;3.78;;;5.70;99.90;;;;;;5037159;28;20018;-70
2020/12/01 13:45:17;;;;;;;5.50;4.15;;;5.50;99.90;;;;;;5034658;28;20029;-70
2020/12/01 13:47:44;;;;;;;4.03;3.63;;;5.30;99.90;;;;;;5036036;28;20026;-70
2020/12/01 13:50:12;;;;;;;4.88;4.38;;;5.40;99.90;;;;;;5033967;28;20021;-70
2020/12/01 13:52:40;;;;;;;4.40;4.00;;;5.30;99.90;;;;;;5032824;28;20033;-70